Time;durP1;ratioP1;P1;durP2;ratioP2;P2;SDS_P1;SDS_P2;PMS_P1;PMS_P2;Temp;Humidity;BMP_temperature;BMP_pressure;BME280_temperature;BME280_humidity;BME280_pressure;Samples;Min_cycle;Max_cycle;Signal;HPM_P1;HPM_P2
2023/11/03 00:00:07;;;;;;;0.70;0.35;;;9.80;99.90;;;;;;5049650;28;20062;-86
2023/11/03 00:02:35;;;;;;;2.20;0.40;;;9.20;99.90;;;;;;5052627;28;20041;-85
2023/11/03 00:05:04;;;;;;;1.85;0.43;;;9.10;99.90;;;;;;5071237;28;20165;-86
2023/11/03 00:07:32;;;;;;;1.45;0.45;;;9.20;99.90;;;;;;5035560;28;20042;-86
2023/11/03 00:10:00;;;;;;;1.42;0.40;;;8.90;99.90;;;;;;5045663;28;20037;-86
2023/11/03 00:12:26;;;;;;;1.17;0.30;;;8.90;99.90;;;;;;5033880;28;20042;-86
2023/11/03 00:14:53;;;;;;;0.93;0.30;;;8.70;99.90;;;;;;5046185;28;20410;-86
2023/11/03 00:17:19;;;;;;;1.13;0.30;;;8.80;99.90;;;;;;5057835;28;20137;-86
2023/11/03 00:19:46;;;;;;;0.85;0.30;;;8.40;99.90;;;;;;5054403;28;20055;-86
2023/11/03 00:22:13;;;;;;;1.58;0.40;;;8.40;99.90;;;;;;5049771;28;20496;-86
2023/11/03 00:24:40;;;;;;;5.30;0.50;;;8.30;99.90;;;;;;5049484;28;20487;-86
2023/11/03 00:27:07;;;;;;;0.50;0.40;;;8.20;99.90;;;;;;5049780;28;20064;-86
2023/11/03 00:29:34;;;;;;;2.22;0.60;;;8.30;99.90;;;;;;5044485;28;20041;-85
2023/11/03 00:32:00;;;;;;;1.42;0.30;;;8.10;99.90;;;;;;5046077;28;20045;-85
2023/11/03 00:34:27;;;;;;;0.52;0.32;;;7.90;99.90;;;;;;5038478;28;20116;-85
2023/11/03 00:36:53;;;;;;;0.35;0.30;;;8.00;99.90;;;;;;5041659;28;20080;-86
2023/11/03 00:39:20;;;;;;;1.85;0.50;;;7.90;99.90;;;;;;5024797;28;20514;-86
2023/11/03 00:41:48;;;;;;;1.65;0.50;;;8.60;99.90;;;;;;5041181;28;20038;-86
2023/11/03 00:44:17;;;;;;;0.77;0.38;;;7.90;99.90;;;;;;5037809;28;21760;-85
2023/11/03 00:46:45;;;;;;;3.55;0.40;;;8.30;99.90;;;;;;5049603;28;20033;-85
2023/11/03 00:49:13;;;;;;;0.88;0.30;;;7.90;99.90;;;;;;5049493;28;20045;-86
2023/11/03 00:51:40;;;;;;;0.90;0.45;;;7.90;99.90;;;;;;5034267;28;20048;-85
2023/11/03 00:54:07;;;;;;;0.95;0.40;;;8.10;99.90;;;;;;5046864;28;20045;-85
2023/11/03 00:56:39;;;;;;;1.67;0.50;;;7.80;99.90;;;;;;5045305;28;20517;-85
2023/11/03 00:59:07;;;;;;;2.13;0.40;;;7.80;99.90;;;;;;5053711;28;20045;-85
2023/11/03 01:01:35;;;;;;;1.15;0.50;;;7.90;99.90;;;;;;5053131;28;20128;-86
2023/11/03 01:04:01;;;;;;;1.75;0.50;;;7.90;99.90;;;;;;5042164;28;20040;-85
2023/11/03 01:06:28;;;;;;;1.35;0.40;;;7.90;99.90;;;;;;5052720;28;20048;-85
2023/11/03 01:08:55;;;;;;;1.23;0.50;;;7.90;99.90;;;;;;5040838;28;20385;-85
2023/11/03 01:11:26;;;;;;;1.70;0.50;;;7.90;99.90;;;;;;5052801;28;20488;-86
2023/11/03 01:13:53;;;;;;;1.52;0.63;;;7.90;99.90;;;;;;5050720;28;20076;-85
2023/11/03 01:16:22;;;;;;;5.85;0.77;;;8.20;99.90;;;;;;5036213;28;20092;-85
2023/11/03 01:18:49;;;;;;;1.98;0.57;;;8.70;99.90;;;;;;5043418;28;20808;-86
2023/11/03 01:21:16;;;;;;;0.95;0.60;;;8.20;99.90;;;;;;5069555;28;20083;-86
2023/11/03 01:23:43;;;;;;;1.27;0.60;;;8.00;99.90;;;;;;5053046;28;20069;-86
2023/11/03 01:26:11;;;;;;;2.22;0.70;;;8.00;99.90;;;;;;5055579;28;20033;-86
2023/11/03 01:28:38;;;;;;;1.67;0.77;;;8.00;99.90;;;;;;5043792;28;20073;-86
2023/11/03 01:31:07;;;;;;;3.97;1.00;;;8.00;99.90;;;;;;5048585;28;20045;-86
2023/11/03 01:33:36;;;;;;;3.50;1.30;;;8.10;99.90;;;;;;5045119;28;20038;-86
2023/11/03 01:36:06;;;;;;;1.77;0.88;;;8.80;99.90;;;;;;5047903;28;20048;-86
2023/11/03 01:38:35;;;;;;;2.75;0.90;;;8.10;99.90;;;;;;5049404;28;20041;-87
2023/11/03 01:41:03;;;;;;;3.20;1.08;;;8.20;99.90;;;;;;5050578;28;20042;-86
2023/11/03 01:43:30;;;;;;;4.40;1.35;;;8.10;99.90;;;;;;5042551;28;20052;-86
2023/11/03 01:45:58;;;;;;;1.35;0.82;;;8.20;99.90;;;;;;5050431;28;20480;-85
2023/11/03 01:48:27;;;;;;;3.05;1.00;;;8.30;99.90;;;;;;5068790;28;20167;-86
2023/11/03 01:51:00;;;;;;;3.88;1.00;;;8.20;99.90;;;;;;5066594;28;20044;-85
2023/11/03 01:53:29;;;;;;;3.33;1.00;;;8.20;99.90;;;;;;5032595;28;20049;-85
2023/11/03 01:55:56;;;;;;;3.45;1.08;;;8.90;99.90;;;;;;5052994;28;20045;-86
2023/11/03 01:58:23;;;;;;;2.25;0.90;;;8.70;99.90;;;;;;5052281;28;20044;-86
2023/11/03 02:00:51;;;;;;;3.10;1.02;;;8.30;99.90;;;;;;5061507;28;20045;-86
2023/11/03 02:03:17;;;;;;;4.53;1.08;;;8.20;99.90;;;;;;5041458;28;20052;-85
2023/11/03 02:05:46;;;;;;;3.20;1.00;;;8.20;99.90;;;;;;5051429;28;20136;-86
2023/11/03 02:08:12;;;;;;;3.25;1.27;;;8.90;99.90;;;;;;5030276;28;20053;-86
2023/11/03 02:10:42;;;;;;;2.85;1.05;;;8.30;99.90;;;;;;5060375;28;20603;-86
2023/11/03 02:13:10;;;;;;;3.00;0.90;;;8.30;99.90;;;;;;5061583;28;20042;-86
2023/11/03 02:15:41;;;;;;;4.13;1.10;;;8.30;99.90;;;;;;5027283;28;20471;-86
2023/11/03 02:18:10;;;;;;;2.30;0.90;;;8.50;99.90;;;;;;5042651;28;20124;-86
2023/11/03 02:20:37;;;;;;;2.15;1.00;;;8.30;99.90;;;;;;5033583;28;20060;-86
2023/11/03 02:23:04;;;;;;;3.83;1.00;;;8.30;99.90;;;;;;5051725;28;20128;-86
2023/11/03 02:25:31;;;;;;;4.63;1.05;;;8.30;99.90;;;;;;5045834;28;20125;-86
2023/11/03 02:27:58;;;;;;;2.75;1.10;;;8.60;99.90;;;;;;5068117;28;20116;-86
2023/11/03 02:30:25;;;;;;;2.83;1.00;;;8.30;99.90;;;;;;5045386;28;20072;-86
2023/11/03 02:32:52;;;;;;;2.15;0.90;;;8.60;99.90;;;;;;5055302;28;20045;-86
2023/11/03 02:35:19;;;;;;;2.20;1.02;;;8.80;99.90;;;;;;5043795;28;20038;-86
2023/11/03 02:37:46;;;;;;;4.00;1.00;;;8.30;99.90;;;;;;5051625;28;20033;-87
2023/11/03 02:40:14;;;;;;;1.70;0.80;;;8.30;99.90;;;;;;5051686;28;20029;-86
2023/11/03 02:42:40;;;;;;;2.40;1.23;;;8.30;99.90;;;;;;5048440;28;20053;-86
2023/11/03 02:45:09;;;;;;;1.77;0.80;;;8.50;99.90;;;;;;5031625;28;20061;-86
2023/11/03 02:47:35;;;;;;;3.75;1.10;;;8.30;99.90;;;;;;5045983;28;20060;-86
2023/11/03 02:50:02;;;;;;;3.08;1.00;;;8.10;99.90;;;;;;5050881;28;20045;-86
2023/11/03 02:52:29;;;;;;;2.92;0.90;;;8.30;99.90;;;;;;5040824;28;20049;-86
2023/11/03 02:54:56;;;;;;;2.55;1.00;;;8.30;99.90;;;;;;5042338;28;20132;-86
2023/11/03 02:57:22;;;;;;;5.03;0.98;;;8.30;99.90;;;;;;5044132;28;20463;-86
2023/11/03 02:59:49;;;;;;;2.70;0.90;;;8.90;99.90;;;;;;5050991;28;20045;-86
2023/11/03 03:02:16;;;;;;;2.55;0.93;;;8.30;99.90;;;;;;5034823;28;20042;-86
2023/11/03 03:04:42;;;;;;;1.95;0.95;;;8.70;99.90;;;;;;5067034;28;20411;-86
2023/11/03 03:07:09;;;;;;;2.38;0.95;;;8.70;99.90;;;;;;5043375;28;20120;-86
2023/11/03 03:09:35;;;;;;;3.25;1.02;;;8.30;99.90;;;;;;5069425;28;20056;-86
2023/11/03 03:12:02;;;;;;;5.00;0.90;;;8.80;99.90;;;;;;5050921;28;20052;-86
2023/11/03 03:14:29;;;;;;;2.90;1.63;;;8.30;99.90;;;;;;5044785;28;20065;-86
2023/11/03 03:16:55;;;;;;;4.38;1.10;;;8.90;99.90;;;;;;5050869;28;20034;-86
2023/11/03 03:19:22;;;;;;;2.45;1.00;;;9.10;99.90;;;;;;5043098;28;20037;-86
2023/11/03 03:21:49;;;;;;;2.78;1.00;;;8.40;99.90;;;;;;5050121;28;20033;-86
2023/11/03 03:24:15;;;;;;;3.53;1.08;;;9.10;99.90;;;;;;5042797;28;20454;-86
2023/11/03 03:26:42;;;;;;;2.42;0.90;;;8.40;99.90;;;;;;5066834;28;20120;-86
2023/11/03 03:29:09;;;;;;;2.22;1.00;;;8.40;99.90;;;;;;5037262;28;20521;-86
2023/11/03 03:31:35;;;;;;;2.28;0.93;;;8.40;99.90;;;;;;5041174;28;20042;-86
2023/11/03 03:34:02;;;;;;;4.28;1.00;;;8.50;99.90;;;;;;5041421;28;20551;-86
2023/11/03 03:36:28;;;;;;;4.38;1.10;;;9.20;99.90;;;;;;5044633;28;20043;-86
2023/11/03 03:38:55;;;;;;;2.58;0.90;;;8.40;99.90;;;;;;5050345;28;20037;-86
2023/11/03 03:41:22;;;;;;;5.32;1.02;;;8.70;99.90;;;;;;5038198;28;20034;-87
2023/11/03 03:43:48;;;;;;;3.42;1.00;;;8.50;99.90;;;;;;5042566;28;20041;-86
2023/11/03 03:46:15;;;;;;;4.47;1.00;;;8.50;99.90;;;;;;5042505;28;20045;-86
2023/11/03 03:48:41;;;;;;;3.03;1.08;;;8.90;99.90;;;;;;5049694;28;20040;-86
2023/11/03 03:51:11;;;;;;;2.60;1.20;;;9.00;99.90;;;;;;5043516;28;20037;-86
2023/11/03 03:53:41;;;;;;;2.75;1.02;;;8.50;99.90;;;;;;5039071;28;20041;-86
2023/11/03 03:56:08;;;;;;;3.63;1.05;;;8.50;99.90;;;;;;5049851;28;20158;-86
2023/11/03 03:58:38;;;;;;;3.40;0.90;;;8.80;99.90;;;;;;5031807;28;20041;-86
2023/11/03 04:01:06;;;;;;;2.35;1.00;;;8.50;99.90;;;;;;5041038;28;20046;-86
2023/11/03 04:03:32;;;;;;;2.15;0.98;;;8.50;99.90;;;;;;5027584;28;20034;-86
2023/11/03 04:05:59;;;;;;;4.55;1.05;;;8.90;99.90;;;;;;5040380;28;20463;-86
2023/11/03 04:08:26;;;;;;;3.38;1.30;;;8.80;99.90;;;;;;5040069;28;20040;-86
2023/11/03 04:10:52;;;;;;;4.63;1.00;;;8.60;99.90;;;;;;5066483;28;20038;-86
2023/11/03 04:13:19;;;;;;;6.97;1.33;;;8.60;99.90;;;;;;5043164;28;20068;-86
2023/11/03 04:15:46;;;;;;;2.63;1.05;;;8.70;99.90;;;;;;5039125;28;20065;-87
2023/11/03 04:18:12;;;;;;;2.65;1.05;;;8.70;99.90;;;;;;5047200;28;20557;-86
2023/11/03 04:20:42;;;;;;;4.50;1.00;;;8.70;99.90;;;;;;5049743;28;20033;-86
2023/11/03 04:23:09;;;;;;;1.88;0.88;;;9.20;99.90;;;;;;5043307;28;20479;-86
2023/11/03 04:25:36;;;;;;;2.83;1.00;;;8.80;99.90;;;;;;5044623;28;20042;-86
2023/11/03 04:28:06;;;;;;;2.88;1.00;;;8.70;99.90;;;;;;5049664;28;20083;-86
2023/11/03 04:30:34;;;;;;;2.65;1.10;;;8.80;99.90;;;;;;5040642;28;20049;-86
2023/11/03 04:33:01;;;;;;;5.60;1.10;;;9.50;99.90;;;;;;5050600;28;20072;-86
2023/11/03 04:35:29;;;;;;;1.65;1.00;;;8.70;99.90;;;;;;5037431;28;20081;-86
2023/11/03 04:37:55;;;;;;;4.55;1.08;;;8.90;99.90;;;;;;5053680;28;20088;-86
2023/11/03 04:40:22;;;;;;;3.65;1.00;;;9.20;99.90;;;;;;5047120;28;20025;-86
2023/11/03 04:42:48;;;;;;;2.53;1.00;;;8.70;99.90;;;;;;5069931;28;20111;-85
2023/11/03 04:45:16;;;;;;;3.70;1.15;;;8.70;99.90;;;;;;5045538;28;20100;-85
2023/11/03 04:47:45;;;;;;;3.20;1.17;;;9.30;99.90;;;;;;5053562;28;20037;-86
2023/11/03 04:50:12;;;;;;;3.55;1.05;;;8.80;99.90;;;;;;5069917;28;20503;-86
2023/11/03 04:52:39;;;;;;;2.47;0.95;;;9.00;99.90;;;;;;5048698;28;20057;-86
2023/11/03 04:55:09;;;;;;;3.58;1.25;;;8.80;99.90;;;;;;5053315;28;20511;-86
2023/11/03 04:57:36;;;;;;;4.18;1.25;;;8.80;99.90;;;;;;5029005;28;20046;-85
2023/11/03 05:00:08;;;;;;;3.40;1.00;;;8.80;99.90;;;;;;5030007;28;20062;-86
2023/11/03 05:02:36;;;;;;;3.20;1.10;;;8.80;99.90;;;;;;5048181;28;20099;-86
2023/11/03 05:05:06;;;;;;;1.55;1.00;;;8.80;99.90;;;;;;5051291;28;20049;-86
2023/11/03 05:07:34;;;;;;;2.45;0.90;;;8.80;99.90;;;;;;5037063;28;20038;-87
2023/11/03 05:10:00;;;;;;;3.45;1.20;;;8.80;99.90;;;;;;5050226;28;20105;-86
2023/11/03 05:12:30;;;;;;;2.35;1.00;;;9.50;99.90;;;;;;5054311;28;20037;-86
2023/11/03 05:14:57;;;;;;;4.35;1.00;;;8.90;99.90;;;;;;5052274;28;20048;-86
2023/11/03 05:17:24;;;;;;;2.58;1.10;;;9.50;99.90;;;;;;5036993;28;20033;-86
2023/11/03 05:19:51;;;;;;;2.25;0.90;;;9.50;99.90;;;;;;5052958;28;20502;-86
2023/11/03 05:22:18;;;;;;;6.75;1.27;;;8.90;99.90;;;;;;5047798;28;20136;-86
2023/11/03 05:24:45;;;;;;;4.72;1.10;;;8.90;99.90;;;;;;5059704;28;20389;-86
2023/11/03 05:27:13;;;;;;;3.38;0.90;;;9.70;99.90;;;;;;5047124;28;20431;-86
2023/11/03 05:29:40;;;;;;;4.38;1.10;;;8.80;99.90;;;;;;5054728;28;20088;-86
2023/11/03 05:32:07;;;;;;;3.28;1.13;;;8.80;99.90;;;;;;5038619;28;20081;-86
2023/11/03 05:34:34;;;;;;;4.60;1.20;;;8.80;99.90;;;;;;5033302;28;20045;-86
2023/11/03 05:37:01;;;;;;;3.60;1.15;;;8.70;99.90;;;;;;5060615;28;20050;-86
2023/11/03 05:39:27;;;;;;;6.05;1.23;;;8.70;99.90;;;;;;5046418;28;20041;-86
2023/11/03 05:41:54;;;;;;;5.45;1.58;;;8.70;99.90;;;;;;5052642;28;20040;-86
2023/11/03 05:44:21;;;;;;;2.38;0.85;;;8.60;99.90;;;;;;5060782;28;20042;-86
2023/11/03 05:46:47;;;;;;;2.78;1.00;;;8.80;99.90;;;;;;5052248;28;20053;-86
2023/11/03 05:49:14;;;;;;;4.03;1.30;;;9.20;99.90;;;;;;5035173;28;20041;-86
2023/11/03 05:51:42;;;;;;;2.78;1.20;;;8.60;99.90;;;;;;5065395;28;20145;-86
2023/11/03 05:54:08;;;;;;;2.00;0.82;;;8.50;99.90;;;;;;5068210;28;20171;-86
2023/11/03 05:56:35;;;;;;;2.95;1.10;;;8.50;99.90;;;;;;5044168;28;20528;-86
2023/11/03 05:59:02;;;;;;;3.05;1.05;;;9.10;99.90;;;;;;5057382;28;20033;-86
2023/11/03 06:01:33;;;;;;;2.78;1.00;;;8.60;99.90;;;;;;5042659;28;20048;-86
2023/11/03 06:04:00;;;;;;;3.53;1.20;;;8.90;99.90;;;;;;5049958;28;20064;-86
2023/11/03 06:06:27;;;;;;;3.45;1.13;;;8.60;99.90;;;;;;5046268;28;20037;-87
2023/11/03 06:08:55;;;;;;;4.30;1.20;;;9.00;99.90;;;;;;5049036;28;20041;-86
2023/11/03 06:11:22;;;;;;;5.65;1.05;;;9.00;99.90;;;;;;5034514;28;20044;-85
2023/11/03 06:13:49;;;;;;;3.40;1.30;;;8.80;99.90;;;;;;5052032;28;20048;-86
2023/11/03 06:16:20;;;;;;;2.63;1.25;;;9.20;99.90;;;;;;5051804;28;20475;-86
2023/11/03 06:18:47;;;;;;;4.10;1.20;;;8.80;99.90;;;;;;5051807;28;20044;-86
2023/11/03 06:21:14;;;;;;;4.30;1.15;;;8.70;99.90;;;;;;5038816;28;20042;-86
2023/11/03 06:23:41;;;;;;;3.38;1.20;;;8.70;99.90;;;;;;5051350;28;20099;-86
2023/11/03 06:26:07;;;;;;;4.93;1.20;;;9.00;99.90;;;;;;5050930;28;20080;-86
2023/11/03 06:28:35;;;;;;;2.83;1.00;;;8.70;99.90;;;;;;5032861;28;20069;-86
2023/11/03 06:31:02;;;;;;;5.03;1.33;;;8.70;99.90;;;;;;5062097;28;20159;-86
2023/11/03 06:33:29;;;;;;;4.47;1.10;;;8.80;99.90;;;;;;5050613;28;20041;-86
2023/11/03 06:35:57;;;;;;;3.10;1.00;;;9.20;99.90;;;;;;5045400;28;20045;-86
2023/11/03 06:38:23;;;;;;;3.20;1.08;;;9.40;99.90;;;;;;5047968;28;20034;-86
2023/11/03 06:40:51;;;;;;;4.70;0.90;;;8.80;99.90;;;;;;5051277;28;20092;-86
2023/11/03 06:43:17;;;;;;;3.90;1.27;;;8.80;99.90;;;;;;5067314;28;20407;-86
2023/11/03 06:45:44;;;;;;;2.78;1.00;;;8.80;99.90;;;;;;5051039;28;20049;-86
2023/11/03 06:48:11;;;;;;;5.22;1.50;;;8.80;99.90;;;;;;5054632;28;20076;-86
2023/11/03 06:50:37;;;;;;;3.45;1.27;;;8.80;99.90;;;;;;5035905;28;20088;-85
2023/11/03 06:53:04;;;;;;;2.58;1.20;;;8.80;99.90;;;;;;5050192;28;20068;-86
2023/11/03 06:55:31;;;;;;;4.68;1.30;;;8.80;99.90;;;;;;5052898;28;20120;-86
2023/11/03 06:57:58;;;;;;;3.15;1.15;;;8.80;99.90;;;;;;5049678;28;20128;-86
2023/11/03 07:00:25;;;;;;;2.50;1.23;;;8.70;99.90;;;;;;5058264;28;20072;-86
2023/11/03 07:02:52;;;;;;;3.33;1.20;;;8.80;99.90;;;;;;5054657;28;20042;-86
2023/11/03 07:05:23;;;;;;;7.75;1.27;;;9.00;99.90;;;;;;5026918;28;20634;-86
2023/11/03 07:07:50;;;;;;;3.55;1.52;;;8.70;99.90;;;;;;5050935;28;20048;-86
2023/11/03 07:10:17;;;;;;;6.50;1.50;;;8.70;99.90;;;;;;5042516;28;20041;-86
2023/11/03 07:12:45;;;;;;;3.30;1.33;;;8.70;99.90;;;;;;5050376;28;20492;-86
2023/11/03 07:15:11;;;;;;;5.20;2.00;;;8.60;99.90;;;;;;5049457;28;20045;-84
2023/11/03 07:17:38;;;;;;;4.35;1.58;;;8.70;99.90;;;;;;5034405;28;20041;-86
2023/11/03 07:20:07;;;;;;;4.15;1.58;;;8.70;99.90;;;;;;5050318;28;20518;-86
2023/11/03 07:22:34;;;;;;;4.03;1.70;;;8.70;99.90;;;;;;5041244;28;20385;-86
2023/11/03 07:25:02;;;;;;;5.18;1.98;;;8.90;99.90;;;;;;5048843;28;20047;-86
2023/11/03 07:27:28;;;;;;;7.28;1.88;;;8.70;99.90;;;;;;5038596;28;20045;-86
2023/11/03 07:29:55;;;;;;;5.78;1.77;;;8.80;99.90;;;;;;5035638;28;20408;-86
2023/11/03 07:32:23;;;;;;;4.90;1.55;;;8.70;99.90;;;;;;5050050;28;20452;-86
2023/11/03 07:34:49;;;;;;;3.30;1.30;;;8.70;99.90;;;;;;5037294;28;20069;-86
2023/11/03 07:37:17;;;;;;;5.65;1.67;;;8.70;99.90;;;;;;5039917;28;20507;-86
2023/11/03 07:39:44;;;;;;;5.25;1.77;;;8.70;99.90;;;;;;5046367;28;20037;-86
2023/11/03 07:42:10;;;;;;;3.58;1.45;;;8.70;99.90;;;;;;5044077;28;20376;-85
2023/11/03 07:44:37;;;;;;;4.93;1.90;;;8.80;99.90;;;;;;5032036;28;20519;-85
2023/11/03 07:47:06;;;;;;;7.25;1.75;;;8.80;99.90;;;;;;5029382;28;20034;-86
2023/11/03 07:49:33;;;;;;;4.65;2.08;;;8.80;99.90;;;;;;5040631;28;20053;-86
2023/11/03 07:52:00;;;;;;;4.60;2.00;;;8.80;99.90;;;;;;5042840;28;20046;-86
2023/11/03 07:54:27;;;;;;;3.67;1.73;;;9.10;99.90;;;;;;5042135;28;20396;-87
2023/11/03 07:56:54;;;;;;;5.93;1.90;;;8.80;99.90;;;;;;5066488;28;20087;-86
2023/11/03 07:59:20;;;;;;;7.38;2.00;;;9.10;99.90;;;;;;5045057;28;20064;-87
2023/11/03 08:01:47;;;;;;;5.53;1.90;;;8.80;99.90;;;;;;5044379;28;20053;-86
2023/11/03 08:04:16;;;;;;;7.53;1.98;;;8.70;99.90;;;;;;5041757;28;20488;-87
2023/11/03 08:06:47;;;;;;;6.18;2.30;;;9.10;99.90;;;;;;5035761;28;20130;-87
2023/11/03 08:09:14;;;;;;;5.05;2.03;;;9.30;99.90;;;;;;5042884;28;20120;-87
2023/11/03 08:11:41;;;;;;;5.97;2.13;;;8.80;99.90;;;;;;5043749;28;20773;-87
2023/11/03 08:14:07;;;;;;;7.10;1.80;;;8.80;99.90;;;;;;5037844;28;20041;-88
2023/11/03 08:16:34;;;;;;;6.30;2.10;;;8.90;99.90;;;;;;5030119;28;20041;-86
2023/11/03 08:19:01;;;;;;;7.22;2.25;;;8.90;99.90;;;;;;5038120;28;20384;-87
2023/11/03 08:21:27;;;;;;;6.28;2.15;;;8.90;99.90;;;;;;5046683;28;20033;-87
2023/11/03 08:23:54;;;;;;;6.95;1.80;;;8.90;99.90;;;;;;5034860;28;20034;-87
2023/11/03 08:26:21;;;;;;;5.13;2.08;;;9.00;99.90;;;;;;5049642;28;20038;-87
2023/11/03 08:28:49;;;;;;;6.57;2.35;;;9.20;99.90;;;;;;5049248;28;20459;-87
2023/11/03 08:31:15;;;;;;;6.75;2.13;;;9.00;99.90;;;;;;5031446;28;20774;-87
2023/11/03 08:33:42;;;;;;;4.32;1.85;;;9.50;99.90;;;;;;5039970;28;20073;-87
2023/11/03 08:36:09;;;;;;;6.55;1.95;;;9.00;99.90;;;;;;5045596;28;20041;-86
2023/11/03 08:38:36;;;;;;;4.38;1.65;;;9.00;99.90;;;;;;5045840;28;20034;-86
2023/11/03 08:41:03;;;;;;;8.38;2.00;;;9.10;99.90;;;;;;5054399;28;20546;-87
2023/11/03 08:43:30;;;;;;;7.15;2.20;;;9.10;99.90;;;;;;5042295;28;20122;-87
2023/11/03 08:45:56;;;;;;;6.85;2.03;;;9.10;99.90;;;;;;5040285;28;20044;-86
2023/11/03 08:48:25;;;;;;;4.95;1.80;;;9.10;99.90;;;;;;5039841;28;20120;-86
2023/11/03 08:50:52;;;;;;;7.97;1.90;;;9.10;99.90;;;;;;5040966;28;20124;-86
2023/11/03 08:53:19;;;;;;;4.78;2.03;;;9.20;99.90;;;;;;5038725;28;20064;-86
2023/11/03 08:55:46;;;;;;;6.25;1.98;;;9.20;99.90;;;;;;5045982;28;20037;-86
2023/11/03 08:58:13;;;;;;;7.55;2.08;;;9.20;99.90;;;;;;5041574;28;20528;-83
2023/11/03 09:00:44;;;;;;;7.53;2.00;;;9.20;99.90;;;;;;5030065;28;20065;-87
2023/11/03 09:03:11;;;;;;;6.43;2.13;;;9.20;99.90;;;;;;5052511;28;20130;-87
2023/11/03 09:05:37;;;;;;;5.65;2.00;;;9.20;99.90;;;;;;5046826;28;20034;-87
2023/11/03 09:08:05;;;;;;;6.93;2.25;;;9.40;99.90;;;;;;5049240;28;20060;-90
2023/11/03 09:10:32;;;;;;;4.55;1.80;;;9.30;99.90;;;;;;5045966;28;20434;-89
2023/11/03 09:12:59;;;;;;;7.78;2.38;;;9.30;99.90;;;;;;5048427;28;20041;-90
2023/11/03 09:15:26;;;;;;;7.97;2.15;;;9.60;99.90;;;;;;5046097;28;20038;-89
2023/11/03 09:17:52;;;;;;;9.02;2.00;;;9.30;99.90;;;;;;5035224;28;20046;-89
2023/11/03 09:20:19;;;;;;;8.57;2.53;;;9.30;99.90;;;;;;5035846;28;20534;-87
2023/11/03 09:22:49;;;;;;;5.47;1.85;;;9.80;99.90;;;;;;5040142;28;20068;-88
2023/11/03 09:25:17;;;;;;;8.60;2.13;;;9.30;99.90;;;;;;5040265;28;20080;-87
2023/11/03 09:27:43;;;;;;;6.10;2.13;;;9.30;99.90;;;;;;5040943;28;20496;-87
2023/11/03 09:30:10;;;;;;;8.50;2.63;;;9.30;99.90;;;;;;5056110;28;20091;-87
2023/11/03 09:32:38;;;;;;;9.50;2.58;;;9.30;99.90;;;;;;5053374;28;20385;-87
2023/11/03 09:35:05;;;;;;;7.15;2.42;;;10.10;99.90;;;;;;5051484;28;20077;-88
2023/11/03 09:37:32;;;;;;;7.57;2.17;;;9.40;99.90;;;;;;5037534;28;20112;-88
2023/11/03 09:40:00;;;;;;;5.43;2.50;;;10.00;99.90;;;;;;5050640;28;20033;-87
2023/11/03 09:42:26;;;;;;;8.80;2.30;;;9.40;99.90;;;;;;5069479;28;20037;-89
2023/11/03 09:44:53;;;;;;;8.27;2.88;;;9.50;99.90;;;;;;5066962;28;20141;-88
2023/11/03 09:47:20;;;;;;;7.53;2.70;;;9.50;99.90;;;;;;5043039;28;20056;-88
2023/11/03 09:49:46;;;;;;;8.15;2.45;;;9.60;99.90;;;;;;5035675;28;20071;-88
2023/11/03 09:52:14;;;;;;;8.45;2.25;;;9.60;99.90;;;;;;5037628;28;20133;-88
2023/11/03 09:54:41;;;;;;;7.55;2.72;;;9.80;99.90;;;;;;5051596;28;20116;-89
2023/11/03 09:57:11;;;;;;;6.60;2.15;;;9.70;99.90;;;;;;5053598;28;20140;-88
2023/11/03 09:59:39;;;;;;;9.77;2.58;;;9.70;99.90;;;;;;5052347;28;20058;-88
2023/11/03 10:02:19;;;;;;;7.75;2.70;;;9.80;99.90;;;;;;5037810;28;20046;-89
2023/11/03 10:04:46;;;;;;;6.88;2.63;;;9.90;99.90;;;;;;5039554;28;20040;-89
2023/11/03 10:07:13;;;;;;;7.65;2.50;;;10.30;99.90;;;;;;5054389;28;20041;-89
2023/11/03 10:09:44;;;;;;;8.88;2.50;;;10.20;99.90;;;;;;5042327;28;20047;-88
2023/11/03 10:12:15;;;;;;;11.68;2.80;;;10.20;99.90;;;;;;5055997;28;20041;-90
2023/11/03 10:14:43;;;;;;;7.03;2.13;;;10.20;99.90;;;;;;5055748;28;20041;-90
2023/11/03 10:17:11;;;;;;;7.07;2.25;;;10.20;99.90;;;;;;5060238;28;20107;-89
2023/11/03 10:19:38;;;;;;;8.32;2.20;;;10.30;99.90;;;;;;5042564;28;20037;-90
2023/11/03 10:22:08;;;;;;;9.77;2.30;;;10.30;99.90;;;;;;5055372;28;20041;-89
2023/11/03 10:24:36;;;;;;;12.02;2.88;;;10.40;99.90;;;;;;5055554;28;20102;-88
2023/11/03 10:27:03;;;;;;;10.05;2.65;;;10.40;99.90;;;;;;5053280;28;20033;-89
2023/11/03 10:29:30;;;;;;;12.45;2.65;;;10.50;99.90;;;;;;5035388;28;20034;-90
2023/11/03 10:31:57;;;;;;;8.15;2.30;;;10.90;99.90;;;;;;5051460;28;20037;-87
2023/11/03 10:34:24;;;;;;;9.20;2.22;;;10.70;99.90;;;;;;5051910;28;20049;-90
2023/11/03 10:36:55;;;;;;;12.38;2.60;;;10.70;99.90;;;;;;5035996;28;20112;-89
2023/11/03 10:39:22;;;;;;;10.85;2.50;;;10.80;99.90;;;;;;5048967;28;20072;-90
2023/11/03 10:41:51;;;;;;;9.18;1.92;;;10.90;99.90;;;;;;5040855;28;20044;-89
2023/11/03 10:44:20;;;;;;;9.07;2.28;;;11.00;99.90;;;;;;5051230;28;20739;-89
2023/11/03 10:46:55;;;;;;;11.05;2.28;;;11.20;99.90;;;;;;5054920;28;20182;-86
2023/11/03 10:49:32;;;;;;;9.98;2.67;;;11.20;99.90;;;;;;5042347;28;20036;-90
2023/11/03 10:52:17;;;;;;;8.80;1.95;;;11.20;99.90;;;;;;5042721;28;20048;-90
2023/11/03 10:55:06;;;;;;;9.50;2.15;;;11.40;99.90;;;;;;5057182;28;20042;-91
2023/11/03 10:57:33;;;;;;;8.45;2.22;;;11.40;99.90;;;;;;5064579;28;20041;-91
2023/11/03 11:00:22;;;;;;;8.75;1.85;;;11.30;99.90;;;;;;5047866;28;20755;-91
2023/11/03 11:03:14;;;;;;;8.32;1.85;;;11.30;99.90;;;;;;5037965;28;20045;-90
2023/11/03 11:06:08;;;;;;;14.60;2.88;;;11.30;99.90;;;;;;5034723;28;20060;-91
2023/11/03 11:08:38;;;;;;;11.20;2.65;;;11.30;99.90;;;;;;5040114;28;20048;-88
2023/11/03 11:11:09;;;;;;;9.98;2.30;;;11.40;99.90;;;;;;5053845;28;20418;-90
2023/11/03 11:13:38;;;;;;;9.80;1.75;;;11.50;99.90;;;;;;5050706;28;20634;-89
2023/11/03 11:16:08;;;;;;;11.52;2.75;;;11.50;99.90;;;;;;5054013;28;20037;-89
2023/11/03 11:18:43;;;;;;;8.90;2.30;;;11.50;99.90;;;;;;5051817;28;20124;-88
2023/11/03 11:21:11;;;;;;;10.25;1.90;;;11.50;99.90;;;;;;5042303;28;20098;-90
2023/11/03 11:23:43;;;;;;;10.45;2.33;;;11.80;99.90;;;;;;5051465;28;20041;-88
2023/11/03 11:26:16;;;;;;;6.45;1.70;;;11.40;99.90;;;;;;5059194;28;20091;-89
2023/11/03 11:28:43;;;;;;;15.30;2.38;;;11.40;99.90;;;;;;5053309;28;20084;-90
2023/11/03 11:31:25;;;;;;;9.25;2.15;;;11.40;99.90;;;;;;5055041;28;20065;-89
2023/11/03 11:34:02;;;;;;;10.20;2.00;;;11.40;99.90;;;;;;5069341;28;20073;-89
2023/11/03 11:36:31;;;;;;;12.52;2.28;;;11.30;99.90;;;;;;5052710;28;20037;-90
2023/11/03 11:39:13;;;;;;;8.82;1.55;;;11.30;99.90;;;;;;5053592;28;20128;-90
2023/11/03 11:41:50;;;;;;;9.43;1.70;;;11.40;99.90;;;;;;5048211;28;20038;-90
2023/11/03 11:44:23;;;;;;;11.23;1.92;;;11.40;99.90;;;;;;5051977;28;20037;-90
2023/11/03 11:46:58;;;;;;;7.72;1.80;;;11.40;99.90;;;;;;5048521;28;20084;-89
2023/11/03 11:49:27;;;;;;;6.97;1.75;;;11.40;99.90;;;;;;5061606;28;20450;-89
2023/11/03 11:51:55;;;;;;;10.68;1.88;;;11.40;99.90;;;;;;5034091;28;20451;-90
2023/11/03 11:54:23;;;;;;;9.57;2.25;;;11.40;99.90;;;;;;5049906;28;20128;-90
2023/11/03 11:56:51;;;;;;;11.90;2.05;;;11.40;99.90;;;;;;5048764;28;20037;-88
2023/11/03 11:59:19;;;;;;;9.90;2.00;;;11.40;99.90;;;;;;5040298;28;20030;-89
2023/11/03 12:01:46;;;;;;;12.52;2.08;;;11.30;99.90;;;;;;5055216;28;20097;-89
2023/11/03 12:04:14;;;;;;;14.77;3.28;;;11.30;99.90;;;;;;5052531;28;20041;-88
2023/11/03 12:06:42;;;;;;;8.52;1.90;;;11.30;99.90;;;;;;5047055;28;20606;-90
2023/11/03 12:09:10;;;;;;;15.32;2.22;;;11.30;99.90;;;;;;5050525;28;20044;-90
2023/11/03 12:11:40;;;;;;;10.73;2.72;;;11.30;99.90;;;;;;5051382;28;20041;-89
2023/11/03 12:14:08;;;;;;;9.43;2.28;;;11.30;99.90;;;;;;5053842;28;20149;-88
2023/11/03 12:16:35;;;;;;;8.80;2.60;;;11.20;99.90;;;;;;5051445;28;20044;-90
2023/11/03 12:19:03;;;;;;;13.57;3.03;;;11.30;99.90;;;;;;5069368;28;20038;-89
2023/11/03 12:21:30;;;;;;;7.25;2.25;;;11.20;99.90;;;;;;5051576;28;20061;-89
2023/11/03 12:23:58;;;;;;;8.90;2.45;;;11.30;99.90;;;;;;5049576;28;20087;-90
2023/11/03 12:26:26;;;;;;;10.63;2.10;;;11.20;99.90;;;;;;5041057;28;20072;-90
2023/11/03 12:29:15;;;;;;;6.88;1.83;;;11.20;99.90;;;;;;5045486;28;20314;-89
2023/11/03 12:31:42;;;;;;;13.05;2.30;;;11.20;99.90;;;;;;5045889;28;20120;-88
2023/11/03 12:34:09;;;;;;;6.60;1.50;;;11.20;99.90;;;;;;5046249;28;20128;-89
2023/11/03 12:36:39;;;;;;;11.82;2.30;;;11.30;99.90;;;;;;5038095;28;20057;-89
2023/11/03 12:39:06;;;;;;;9.63;2.20;;;11.60;99.90;;;;;;5054725;28;20068;-89
2023/11/03 12:41:34;;;;;;;8.20;1.90;;;11.30;99.90;;;;;;5040332;28;20029;-90
2023/11/03 12:44:07;;;;;;;7.78;2.50;;;11.70;99.90;;;;;;5049490;28;20029;-89
2023/11/03 12:46:45;;;;;;;10.40;2.30;;;11.30;99.90;;;;;;5047243;28;20049;-90
2023/11/03 12:49:13;;;;;;;9.32;2.28;;;11.40;99.90;;;;;;5054411;28;20372;-89
2023/11/03 12:51:42;;;;;;;10.25;2.00;;;11.40;99.90;;;;;;5050663;28;20034;-89
2023/11/03 12:54:21;;;;;;;7.85;1.70;;;11.50;99.90;;;;;;5073713;28;20049;-88
2023/11/03 12:56:52;;;;;;;9.98;2.05;;;11.50;99.90;;;;;;5055059;28;20045;-89